Time;durP1;ratioP1;P1;durP2;ratioP2;P2;SDS_P1;SDS_P2;PMS_P1;PMS_P2;Temp;Humidity;BMP_temperature;BMP_pressure;BME280_temperature;BME280_humidity;BME280_pressure;Samples;Min_cycle;Max_cycle;Signal;HPM_P1;HPM_P2
2023/01/19 00:01:18;;;;;;;23.48;10.13;;;-0.80;99.90;;;;;;4898773;29;20681;-48
2023/01/19 00:03:44;;;;;;;23.13;9.75;;;-0.80;99.90;;;;;;4914471;29;20020;-46
2023/01/19 00:06:10;;;;;;;26.08;10.95;;;-0.80;99.90;;;;;;4914302;29;20407;-52
2023/01/19 00:08:35;;;;;;;19.20;7.72;;;-0.80;99.90;;;;;;4914635;29;20451;-49
2023/01/19 00:11:01;;;;;;;18.17;8.32;;;-0.80;99.90;;;;;;4914535;29;20072;-49
2023/01/19 00:13:27;;;;;;;32.08;11.05;;;-0.80;99.90;;;;;;4914134;29;20038;-47
2023/01/19 00:15:53;;;;;;;21.58;10.55;;;-0.60;99.90;;;;;;4914142;29;20393;-50
2023/01/19 00:18:19;;;;;;;21.85;10.40;;;-0.70;99.90;;;;;;4914133;29;20420;-48
2023/01/19 00:20:45;;;;;;;20.05;9.98;;;-0.80;99.90;;;;;;4914237;29;20028;-47
2023/01/19 00:23:12;;;;;;;20.33;9.40;;;-0.80;99.90;;;;;;4914103;29;20120;-44
2023/01/19 00:25:44;;;;;;;14.35;8.20;;;-0.90;99.90;;;;;;4914178;29;20495;-52
2023/01/19 00:28:14;;;;;;;17.05;7.80;;;-0.90;99.90;;;;;;4914055;29;20495;-49
2023/01/19 00:30:40;;;;;;;13.80;6.45;;;-0.90;99.90;;;;;;4913872;29;20531;-44
2023/01/19 00:33:06;;;;;;;13.52;6.20;;;-0.90;99.90;;;;;;4913934;29;20028;-47
2023/01/19 00:35:33;;;;;;;13.18;6.32;;;-0.90;99.90;;;;;;4913789;29;20042;-49
2023/01/19 00:38:00;;;;;;;12.30;6.28;;;-0.90;99.90;;;;;;4915018;29;20028;-44
2023/01/19 00:40:25;;;;;;;19.08;7.07;;;-0.80;99.90;;;;;;4917791;29;20040;-44
2023/01/19 00:42:51;;;;;;;16.52;6.78;;;-0.80;99.90;;;;;;4917794;29;20043;-50
2023/01/19 00:45:20;;;;;;;14.27;6.30;;;-0.80;99.90;;;;;;4917831;29;20025;-45
2023/01/19 00:47:49;;;;;;;15.80;7.65;;;-0.80;99.90;;;;;;4917682;29;20048;-46
2023/01/19 00:50:15;;;;;;;15.77;7.10;;;-0.80;99.90;;;;;;4917833;29;20028;-51
2023/01/19 00:52:43;;;;;;;14.93;6.60;;;-0.80;99.90;;;;;;4917646;29;20127;-53
2023/01/19 00:55:14;;;;;;;10.07;6.50;;;-0.90;99.90;;;;;;4917767;29;20032;-47
2023/01/19 00:57:41;;;;;;;11.85;6.78;;;-0.90;99.90;;;;;;4917530;29;20036;-49
2023/01/19 01:00:10;;;;;;;12.13;7.25;;;-1.00;99.90;;;;;;4910037;29;20108;-48
2023/01/19 01:02:39;;;;;;;16.70;8.20;;;-1.00;99.90;;;;;;4910136;29;20063;-44
2023/01/19 01:05:06;;;;;;;22.95;8.57;;;-1.10;99.90;;;;;;4916194;29;20039;-43
2023/01/19 01:07:43;;;;;;;13.25;7.57;;;-1.20;99.90;;;;;;4917745;29;20049;-44
2023/01/19 01:10:20;;;;;;;16.45;7.38;;;-1.20;99.90;;;;;;4917750;29;20012;-45
2023/01/19 01:12:47;;;;;;;17.35;7.72;;;-1.30;99.90;;;;;;4917200;29;20032;-47
2023/01/19 01:15:14;;;;;;;16.80;8.43;;;-1.20;99.90;;;;;;4917458;29;20024;-44
2023/01/19 01:17:46;;;;;;;16.80;9.05;;;-1.10;99.90;;;;;;4917592;29;20032;-49
2023/01/19 01:20:33;;;;;;;15.57;7.80;;;-1.00;99.90;;;;;;4915768;29;20036;-51
2023/01/19 01:22:59;;;;;;;18.40;7.75;;;-0.90;99.90;;;;;;4917372;29;20024;-47
2023/01/19 01:25:26;;;;;;;13.93;8.10;;;-0.90;99.90;;;;;;4916925;29;20032;-48
2023/01/19 01:27:53;;;;;;;18.50;8.93;;;-0.90;99.90;;;;;;4917173;29;20063;-44
2023/01/19 01:30:19;;;;;;;20.23;8.50;;;-0.90;99.90;;;;;;4912968;29;20463;-44
2023/01/19 01:32:45;;;;;;;16.35;8.18;;;-0.90;99.90;;;;;;4911658;29;20141;-47
2023/01/19 01:35:11;;;;;;;17.80;8.45;;;-0.90;99.90;;;;;;4903595;29;20405;-44
2023/01/19 01:37:37;;;;;;;17.90;8.73;;;-0.90;99.90;;;;;;4917006;29;20024;-52
2023/01/19 01:40:05;;;;;;;17.88;9.02;;;-0.90;99.90;;;;;;4916841;29;20483;-48
2023/01/19 01:42:32;;;;;;;21.25;7.97;;;-0.90;99.90;;;;;;4916402;29;20016;-48
2023/01/19 01:45:01;;;;;;;18.20;8.88;;;-0.90;99.90;;;;;;4916779;29;20032;-48
2023/01/19 01:47:40;;;;;;;18.70;8.23;;;-0.90;99.90;;;;;;4916719;29;20052;-47
2023/01/19 01:51:22;;;;;;;16.45;7.47;;;-1.00;99.90;;;;;;4904882;29;20054;-45
2023/01/19 01:53:29;;;;;;;14.18;8.00;;;-1.00;99.90;;;;;;4858174;29;20057;-52
2023/01/19 01:55:56;;;;;;;13.20;7.57;;;-1.00;99.90;;;;;;4913752;29;20060;-47
2023/01/19 01:58:22;;;;;;;13.27;7.07;;;-1.00;99.90;;;;;;4916320;29;20122;-47
2023/01/19 02:03:31;;;;;;;17.30;7.00;;;-1.10;99.90;;;;;;4903526;29;20070;-52
2023/01/19 02:06:01;;;;;;;12.77;6.78;;;-1.00;99.90;;;;;;4916447;29;20063;-48
2023/01/19 02:14:11;;;;;;;18.33;9.52;;;-1.00;99.90;;;;;;4916189;29;20054;-46
2023/01/19 02:16:37;;;;;;;22.30;10.05;;;-1.10;99.90;;;;;;4916196;29;20107;-44
2023/01/19 02:19:05;;;;;;;20.95;9.85;;;-1.10;99.90;;;;;;4916299;29;20122;-46
2023/01/19 02:21:55;;;;;;;20.00;10.13;;;-1.20;99.90;;;;;;4916095;29;20036;-51
2023/01/19 02:24:21;;;;;;;18.30;9.82;;;-1.30;99.90;;;;;;4915871;29;20404;-44
2023/01/19 02:26:47;;;;;;;19.05;9.20;;;-0.90;99.90;;;;;;4915866;29;20032;-48
2023/01/19 02:29:19;;;;;;;21.98;9.00;;;-1.30;99.90;;;;;;4915250;29;20027;-47
2023/01/19 02:31:45;;;;;;;16.95;8.40;;;-1.30;99.90;;;;;;4902214;29;20123;-45
2023/01/19 02:34:14;;;;;;;17.90;8.60;;;-1.40;99.90;;;;;;4914480;29;20039;-44
2023/01/19 02:36:53;;;;;;;13.85;7.45;;;-1.50;99.90;;;;;;4915987;29;20152;-51
2023/01/19 02:39:32;;;;;;;15.25;7.95;;;-1.60;99.90;;;;;;4904542;29;20070;-52
2023/01/19 02:42:09;;;;;;;15.43;8.90;;;-1.60;99.90;;;;;;4899916;29;20048;-44
2023/01/19 02:44:37;;;;;;;17.48;8.93;;;-1.70;99.90;;;;;;4896354;29;20504;-51
2023/01/19 02:47:03;;;;;;;20.60;8.57;;;-1.70;99.90;;;;;;4896388;29;20099;-49
2023/01/19 02:49:30;;;;;;;18.42;8.85;;;-1.80;99.90;;;;;;4896696;29;20048;-52
2023/01/19 02:51:56;;;;;;;16.23;8.40;;;-1.80;99.90;;;;;;4896820;29;20027;-48
2023/01/19 02:54:54;;;;;;;20.38;8.43;;;-1.80;99.90;;;;;;4896749;29;20040;-46
2023/01/19 02:57:30;;;;;;;17.95;8.48;;;-1.90;99.90;;;;;;4896645;29;20028;-55
2023/01/19 03:00:01;;;;;;;15.02;7.78;;;-1.90;99.90;;;;;;4896537;29;20033;-50
2023/01/19 03:02:57;;;;;;;14.68;7.65;;;-2.00;99.90;;;;;;4896107;29;20032;-48
2023/01/19 03:05:46;;;;;;;19.45;8.30;;;-2.00;99.90;;;;;;4895821;29;20031;-49
2023/01/19 03:08:17;;;;;;;15.05;7.93;;;-1.90;99.90;;;;;;4888612;29;20135;-51
2023/01/19 03:11:01;;;;;;;18.35;8.98;;;-2.00;99.90;;;;;;4909234;29;20075;-47
2023/01/19 03:13:30;;;;;;;16.30;8.30;;;-2.00;99.90;;;;;;4895832;29;20040;-47
2023/01/19 03:16:09;;;;;;;18.05;8.93;;;-2.00;99.90;;;;;;4896204;29;20127;-49
2023/01/19 03:18:37;;;;;;;16.02;8.50;;;-1.90;99.90;;;;;;4896488;29;20060;-47
2023/01/19 03:21:06;;;;;;;18.20;7.65;;;-1.90;99.90;;;;;;4896209;29;20021;-51
2023/01/19 03:23:35;;;;;;;16.08;7.88;;;-1.90;99.90;;;;;;4896465;29;20043;-48
2023/01/19 03:26:04;;;;;;;15.40;7.25;;;-1.90;99.90;;;;;;4895973;29;20032;-48
2023/01/19 03:28:31;;;;;;;16.70;6.82;;;-1.90;99.90;;;;;;4896079;29;20028;-46
2023/01/19 03:31:23;;;;;;;13.57;6.82;;;-1.80;99.90;;;;;;4896204;29;20032;-44
2023/01/19 03:33:53;;;;;;;12.15;6.72;;;-1.80;99.90;;;;;;4895757;29;20059;-44
2023/01/19 03:36:45;;;;;;;18.65;8.65;;;-1.80;99.90;;;;;;4895857;29;20016;-46
2023/01/19 03:39:14;;;;;;;17.08;8.52;;;-1.70;99.90;;;;;;4895348;29;20055;-48
2023/01/19 03:41:41;;;;;;;;;;;-1.70;99.90;;;;;;4896357;29;20021;-44
2023/01/19 03:44:10;;;;;;;23.98;8.70;;;-1.80;99.90;;;;;;4895689;29;20009;-50
2023/01/19 03:46:37;;;;;;;18.20;7.80;;;-1.90;99.90;;;;;;4895566;29;20023;-49
2023/01/19 03:49:02;;;;;;;15.48;8.15;;;-1.80;99.90;;;;;;4895743;29;20048;-44
2023/01/19 03:51:28;;;;;;;18.75;9.00;;;-2.00;99.90;;;;;;4895474;29;20080;-44
2023/01/19 03:53:54;;;;;;;20.63;8.93;;;-1.80;99.90;;;;;;4895995;29;20044;-47
2023/01/19 03:56:24;;;;;;;17.92;9.35;;;-1.90;99.90;;;;;;4895467;29;20029;-44
2023/01/19 03:58:50;;;;;;;20.92;9.00;;;-1.90;99.90;;;;;;4897555;29;20036;-44
2023/01/19 04:01:21;;;;;;;26.67;9.13;;;-2.00;99.90;;;;;;4907190;29;20032;-44
2023/01/19 04:03:47;;;;;;;16.45;8.65;;;-2.00;99.90;;;;;;4908654;29;20033;-44
2023/01/19 04:06:13;;;;;;;15.80;8.57;;;-2.10;99.90;;;;;;4895974;29;20029;-44
2023/01/19 04:08:39;;;;;;;16.23;8.52;;;-2.20;99.90;;;;;;4895891;29;20059;-44
2023/01/19 04:11:07;;;;;;;15.80;7.45;;;-2.20;99.90;;;;;;4895849;29;20056;-44
2023/01/19 04:13:33;;;;;;;16.38;8.30;;;-2.10;99.90;;;;;;4894654;29;20147;-54
2023/01/19 04:16:03;;;;;;;16.77;7.88;;;-2.10;99.90;;;;;;4895733;29;20028;-51
2023/01/19 04:18:30;;;;;;;16.63;7.75;;;-2.00;99.90;;;;;;4894682;29;20104;-46
2023/01/19 04:21:04;;;;;;;15.07;7.75;;;-2.00;99.90;;;;;;4895388;29;20028;-45
2023/01/19 04:23:30;;;;;;;15.93;7.78;;;-2.00;99.90;;;;;;4895344;29;20028;-47
2023/01/19 04:26:01;;;;;;;14.63;7.95;;;-2.10;99.90;;;;;;4895586;29;20075;-49
2023/01/19 04:28:27;;;;;;;14.75;7.57;;;-2.10;99.90;;;;;;4895473;29;20489;-45
2023/01/19 04:30:53;;;;;;;15.05;7.38;;;-2.00;99.90;;;;;;4895459;29;20025;-46
2023/01/19 04:33:19;;;;;;;11.38;7.20;;;-2.10;99.90;;;;;;4901351;29;20440;-45
2023/01/19 04:35:46;;;;;;;19.92;7.80;;;-2.10;99.90;;;;;;4897874;29;20033;-44
2023/01/19 04:38:12;;;;;;;14.40;7.38;;;-2.10;99.90;;;;;;4895483;29;20048;-45
2023/01/19 04:40:38;;;;;;;16.05;7.80;;;-2.00;99.90;;;;;;4895273;29;20108;-51
2023/01/19 04:43:03;;;;;;;15.57;7.63;;;-2.00;99.90;;;;;;4894855;29;20057;-43
2023/01/19 04:45:29;;;;;;;14.95;7.35;;;-2.00;99.90;;;;;;4894728;29;20037;-48
2023/01/19 04:47:55;;;;;;;16.42;7.85;;;-2.00;99.90;;;;;;4895001;29;20051;-45
2023/01/19 04:50:20;;;;;;;15.48;8.10;;;-1.90;99.90;;;;;;4896935;29;20378;-45
2023/01/19 04:52:46;;;;;;;18.70;8.68;;;-1.90;99.90;;;;;;4910305;29;20073;-44
2023/01/19 04:55:12;;;;;;;18.30;7.65;;;-1.90;99.90;;;;;;4912655;29;20062;-48
2023/01/19 04:57:38;;;;;;;15.98;7.63;;;-2.00;99.90;;;;;;4904586;29;20058;-44
2023/01/19 05:00:07;;;;;;;16.40;7.50;;;-2.00;99.90;;;;;;4913020;29;20032;-49
2023/01/19 05:02:33;;;;;;;15.23;7.50;;;-2.00;99.90;;;;;;4903418;29;20107;-49
2023/01/19 05:05:00;;;;;;;14.07;6.85;;;-2.00;99.90;;;;;;4914021;29;20115;-51
2023/01/19 05:07:26;;;;;;;19.50;8.45;;;-1.90;99.90;;;;;;4913343;29;20032;-47
2023/01/19 05:09:52;;;;;;;18.00;8.60;;;-1.80;99.90;;;;;;4901658;29;20031;-47
2023/01/19 05:12:18;;;;;;;18.38;8.10;;;-1.80;99.90;;;;;;4900221;29;20032;-54
2023/01/19 05:14:44;;;;;;;16.65;8.27;;;-1.90;99.90;;;;;;4905340;29;20052;-53
2023/01/19 05:17:10;;;;;;;18.63;7.90;;;-2.00;99.90;;;;;;4902376;29;20031;-47
2023/01/19 05:19:36;;;;;;;15.82;7.78;;;-1.90;99.90;;;;;;4911457;29;20056;-44
2023/01/19 05:22:03;;;;;;;19.05;8.80;;;-1.90;99.90;;;;;;4910830;29;20087;-47
2023/01/19 05:24:29;;;;;;;18.73;7.65;;;-2.00;99.90;;;;;;4911446;29;20059;-50
2023/01/19 05:26:54;;;;;;;17.67;8.20;;;-2.10;99.90;;;;;;4917104;29;20483;-46
2023/01/19 05:29:20;;;;;;;14.68;8.45;;;-2.20;99.90;;;;;;4912490;29;20116;-50
2023/01/19 05:31:46;;;;;;;18.33;7.97;;;-2.20;99.90;;;;;;4913639;29;20032;-46
2023/01/19 05:34:13;;;;;;;16.50;7.90;;;-2.30;99.90;;;;;;4910268;29;20449;-52
2023/01/19 05:36:39;;;;;;;14.65;7.60;;;-2.20;99.90;;;;;;4915120;29;20484;-52
2023/01/19 05:39:05;;;;;;;15.52;8.02;;;-2.20;99.90;;;;;;4915511;29;20042;-54
2023/01/19 05:41:30;;;;;;;14.48;7.97;;;-2.20;99.90;;;;;;4917011;29;20058;-52
2023/01/19 05:43:56;;;;;;;15.02;8.35;;;-2.20;99.90;;;;;;4916828;29;20215;-51
2023/01/19 05:46:23;;;;;;;13.35;7.00;;;-2.30;99.90;;;;;;4907005;29;20021;-48
2023/01/19 05:48:49;;;;;;;18.67;7.38;;;-2.30;99.90;;;;;;4915179;29;20467;-49
2023/01/19 05:51:14;;;;;;;13.38;7.18;;;-2.30;99.90;;;;;;4906871;29;20127;-46
2023/01/19 05:53:40;;;;;;;13.23;6.97;;;-2.20;99.90;;;;;;4909217;29;20120;-46
2023/01/19 05:56:08;;;;;;;14.38;7.90;;;-2.10;99.90;;;;;;4904796;29;20029;-46
2023/01/19 05:58:34;;;;;;;13.02;7.18;;;-2.10;99.90;;;;;;4905527;29;20064;-48
2023/01/19 06:01:05;;;;;;;20.52;8.57;;;-2.20;99.90;;;;;;4908165;29;20060;-43
2023/01/19 06:03:34;;;;;;;17.10;8.55;;;-2.10;99.90;;;;;;4912860;29;20024;-47
2023/01/19 06:06:01;;;;;;;16.83;7.85;;;-2.10;99.90;;;;;;4915429;29;20032;-45
2023/01/19 06:08:27;;;;;;;16.52;8.50;;;-2.10;99.90;;;;;;4914827;29;20024;-45
2023/01/19 06:10:53;;;;;;;22.55;8.73;;;-2.10;99.90;;;;;;4914663;29;20036;-51
2023/01/19 06:13:19;;;;;;;19.08;8.07;;;-2.20;99.90;;;;;;4910537;29;20119;-50
2023/01/19 06:15:45;;;;;;;22.50;8.70;;;-2.20;99.90;;;;;;4914717;29;20384;-47
2023/01/19 06:18:11;;;;;;;16.83;8.82;;;-2.10;99.90;;;;;;4914940;29;20028;-47
2023/01/19 06:20:37;;;;;;;15.90;8.27;;;-2.20;99.90;;;;;;4914629;29;20031;-48
2023/01/19 06:23:02;;;;;;;14.82;7.70;;;-2.20;99.90;;;;;;4915443;29;20028;-50
2023/01/19 06:25:28;;;;;;;20.08;8.35;;;-2.20;99.90;;;;;;4916110;29;20491;-50
2023/01/19 06:27:54;;;;;;;14.05;8.18;;;-2.20;99.90;;;;;;4916123;29;20024;-43
2023/01/19 06:30:20;;;;;;;21.23;8.80;;;-2.30;99.90;;;;;;4911304;29;20036;-48
2023/01/19 06:32:46;;;;;;;24.60;9.77;;;-2.30;99.90;;;;;;4909780;29;20076;-43
2023/01/19 06:35:12;;;;;;;18.10;10.25;;;-2.30;99.90;;;;;;4912477;29;20032;-43
2023/01/19 06:37:39;;;;;;;18.27;8.95;;;-2.30;99.90;;;;;;4909222;29;20016;-47
2023/01/19 06:40:06;;;;;;;22.77;8.43;;;-2.40;99.90;;;;;;4912737;29;20387;-51
2023/01/19 06:42:32;;;;;;;14.90;7.82;;;-2.40;99.90;;;;;;4911219;29;20040;-48
2023/01/19 06:44:58;;;;;;;16.20;8.98;;;-2.50;99.90;;;;;;4911518;29;20446;-43
2023/01/19 06:47:23;;;;;;;14.00;7.43;;;-2.50;99.90;;;;;;4912718;29;20044;-50
2023/01/19 06:49:49;;;;;;;15.35;7.72;;;-2.60;99.90;;;;;;4907723;29;20123;-49
2023/01/19 06:52:16;;;;;;;13.75;7.93;;;-2.50;99.90;;;;;;4896801;29;20036;-45
2023/01/19 06:54:45;;;;;;;14.43;8.00;;;-2.60;99.90;;;;;;4896804;29;20143;-43
2023/01/19 06:57:12;;;;;;;18.60;7.22;;;-2.70;99.90;;;;;;4896979;29;20028;-44
2023/01/19 06:59:38;;;;;;;17.15;7.50;;;-2.70;99.90;;;;;;4908520;29;20123;-45
2023/01/19 07:02:04;;;;;;;19.13;7.47;;;-2.60;99.90;;;;;;4897698;29;20105;-43
2023/01/19 07:04:29;;;;;;;16.70;8.40;;;-2.60;99.90;;;;;;4896566;29;20144;-45
2023/01/19 07:06:55;;;;;;;17.05;7.85;;;-2.60;99.90;;;;;;4896972;29;20036;-47
2023/01/19 07:09:21;;;;;;;15.68;8.10;;;-2.60;99.90;;;;;;4896766;29;20032;-42
2023/01/19 07:11:47;;;;;;;21.70;9.48;;;-2.60;99.90;;;;;;4896526;29;20357;-43
2023/01/19 07:14:13;;;;;;;17.08;8.20;;;-2.40;99.90;;;;;;4895021;29;20412;-43
2023/01/19 07:16:38;;;;;;;18.20;8.40;;;-2.40;99.90;;;;;;4896555;29;20485;-50
2023/01/19 07:19:04;;;;;;;17.83;7.95;;;-2.50;99.90;;;;;;4896234;29;20029;-47
2023/01/19 07:21:30;;;;;;;16.08;8.80;;;-2.50;99.90;;;;;;4896414;29;20035;-54
2023/01/19 07:23:56;;;;;;;18.42;7.88;;;-2.60;99.90;;;;;;4896313;29;20395;-51
2023/01/19 07:26:24;;;;;;;14.85;7.82;;;-2.60;99.90;;;;;;4910074;29;20031;-45
2023/01/19 07:28:50;;;;;;;21.65;8.07;;;-2.70;99.90;;;;;;4908243;29;20096;-52
2023/01/19 07:31:17;;;;;;;15.48;7.57;;;-2.60;99.90;;;;;;4908636;29;20472;-49
2023/01/19 07:33:43;;;;;;;20.92;8.60;;;-2.60;99.90;;;;;;4914366;29;20048;-47
2023/01/19 07:36:09;;;;;;;16.33;7.93;;;-2.60;99.90;;;;;;4914033;29;20460;-52
2023/01/19 07:38:35;;;;;;;16.33;8.10;;;-2.50;99.90;;;;;;4914770;29;20028;-43
2023/01/19 07:41:02;;;;;;;14.40;7.88;;;-2.60;99.90;;;;;;4914347;29;20032;-43
2023/01/19 07:43:28;;;;;;;15.95;7.57;;;-2.50;99.90;;;;;;4914770;29;20550;-42
2023/01/19 07:46:01;;;;;;;15.60;9.27;;;-2.60;99.90;;;;;;4909459;29;20119;-42
2023/01/19 07:48:27;;;;;;;19.35;9.32;;;-2.60;99.90;;;;;;4914443;29;20051;-44
2023/01/19 07:50:57;;;;;;;22.40;8.65;;;-2.60;99.90;;;;;;4904601;29;20032;-43
2023/01/19 07:53:23;;;;;;;15.02;7.35;;;-2.50;99.90;;;;;;4895677;29;20183;-43
2023/01/19 07:55:53;;;;;;;18.40;8.70;;;-2.60;99.90;;;;;;4895880;29;20099;-45
2023/01/19 07:58:19;;;;;;;18.08;8.85;;;-2.70;99.90;;;;;;4896517;29;20425;-50
2023/01/19 08:00:44;;;;;;;17.60;8.38;;;-2.60;99.90;;;;;;4902823;29;20024;-43
2023/01/19 08:03:10;;;;;;;16.95;9.85;;;-2.50;99.90;;;;;;4913227;29;20024;-42
2023/01/19 08:05:36;;;;;;;16.00;7.43;;;-2.50;99.90;;;;;;4899499;29;20035;-43
2023/01/19 08:08:02;;;;;;;18.42;9.45;;;-2.40;99.90;;;;;;4911614;29;20267;-42
2023/01/19 08:10:28;;;;;;;18.13;9.57;;;-2.40;99.90;;;;;;4912996;29;20742;-42
2023/01/19 08:12:55;;;;;;;21.60;10.65;;;-2.40;99.90;;;;;;4904986;29;20032;-42
2023/01/19 08:15:23;;;;;;;21.55;11.52;;;-2.40;99.90;;;;;;4895678;29;20029;-47
2023/01/19 08:18:00;;;;;;;26.85;11.23;;;-2.40;99.90;;;;;;4903192;29;20032;-42
2023/01/19 08:20:27;;;;;;;21.67;10.02;;;-2.30;99.90;;;;;;4913717;29;20077;-42
2023/01/19 08:22:59;;;;;;;19.33;9.65;;;-2.30;99.90;;;;;;4907342;29;20487;-42
2023/01/19 08:25:33;;;;;;;15.52;8.25;;;-2.20;99.90;;;;;;4914218;29;20423;-43
2023/01/19 08:28:00;;;;;;;20.63;10.00;;;-2.20;99.90;;;;;;4903013;29;20032;-48
2023/01/19 08:30:25;;;;;;;16.45;8.52;;;-2.10;99.90;;;;;;4914215;29;20028;-42
2023/01/19 08:32:53;;;;;;;20.48;9.35;;;-2.00;99.90;;;;;;4910411;29;20536;-42
2023/01/19 08:35:19;;;;;;;18.60;9.27;;;-1.80;99.90;;;;;;4906883;29;20488;-43
2023/01/19 08:37:45;;;;;;;15.55;8.35;;;-1.70;99.90;;;;;;4908124;29;20047;-50
2023/01/19 08:40:11;;;;;;;19.25;9.65;;;-1.60;99.90;;;;;;4911856;29;20119;-44
2023/01/19 08:42:36;;;;;;;17.90;9.25;;;-1.40;99.90;;;;;;4907798;29;20033;-44
2023/01/19 08:45:02;;;;;;;18.48;9.18;;;-1.20;99.90;;;;;;4911248;29;20379;-48
2023/01/19 08:47:28;;;;;;;19.00;10.07;;;-0.90;99.90;;;;;;4910781;29;20572;-49
2023/01/19 08:49:54;;;;;;;20.20;10.18;;;-0.70;99.90;;;;;;4905159;29;20024;-43
2023/01/19 08:52:20;;;;;;;22.17;10.40;;;-0.30;99.90;;;;;;4912041;29;20373;-52
2023/01/19 08:54:45;;;;;;;27.88;11.13;;;0.20;99.90;;;;;;4909281;29;20095;-44
2023/01/19 08:57:11;;;;;;;18.77;9.52;;;0.90;99.90;;;;;;4913613;29;20032;-56
2023/01/19 08:59:37;;;;;;;18.15;9.32;;;1.60;99.90;;;;;;4907028;29;20024;-50
2023/01/19 09:02:03;;;;;;;16.80;9.15;;;2.00;99.90;;;;;;4916160;29;20028;-47
2023/01/19 09:04:28;;;;;;;16.10;8.68;;;2.30;99.90;;;;;;4917398;29;20036;-50
2023/01/19 09:06:54;;;;;;;13.88;7.95;;;2.50;99.90;;;;;;4915914;29;20028;-49
2023/01/19 09:09:20;;;;;;;16.67;8.85;;;2.50;99.90;;;;;;4917167;29;20043;-50
2023/01/19 09:11:45;;;;;;;16.90;8.77;;;2.20;99.90;;;;;;4916699;29;20039;-48
2023/01/19 09:14:11;;;;;;;16.50;8.90;;;2.10;99.90;;;;;;4917132;29;20088;-48
2023/01/19 09:16:36;;;;;;;14.98;8.70;;;2.50;99.90;;;;;;4916906;29;20039;-50
2023/01/19 09:19:02;;;;;;;18.23;9.68;;;3.10;99.90;;;;;;4915234;29;20040;-49
2023/01/19 09:21:28;;;;;;;10.65;7.10;;;3.10;99.90;;;;;;4916169;29;20024;-45
2023/01/19 09:23:53;;;;;;;11.35;6.38;;;2.90;99.90;;;;;;4916656;29;20040;-45
2023/01/19 09:26:21;;;;;;;16.02;6.93;;;2.60;99.90;;;;;;4917025;29;20043;-45
2023/01/19 09:28:46;;;;;;;14.38;7.63;;;2.30;99.90;;;;;;4916633;29;20076;-44
2023/01/19 09:31:13;;;;;;;13.80;8.02;;;2.10;99.90;;;;;;4917039;29;20027;-46
2023/01/19 09:33:39;;;;;;;17.95;8.10;;;1.90;99.90;;;;;;4915803;29;20074;-48
2023/01/19 09:36:05;;;;;;;16.30;8.43;;;1.70;99.90;;;;;;4902640;29;20028;-52
2023/01/19 09:38:31;;;;;;;21.00;8.35;;;1.60;99.90;;;;;;4901214;29;20029;-49
2023/01/19 09:40:58;;;;;;;14.45;8.30;;;1.60;99.90;;;;;;4900459;29;20036;-46
2023/01/19 09:43:41;;;;;;;21.85;8.93;;;1.70;99.90;;;;;;4905942;29;20025;-45
2023/01/19 09:46:14;;;;;;;20.35;9.60;;;1.70;99.90;;;;;;4903852;29;20026;-45
2023/01/19 09:48:50;;;;;;;19.48;9.00;;;1.80;99.90;;;;;;4900909;29;20055;-45
2023/01/19 09:51:20;;;;;;;16.67;8.68;;;1.70;99.90;;;;;;4913609;29;20032;-50
2023/01/19 09:53:49;;;;;;;25.40;9.57;;;1.80;99.90;;;;;;4913278;29;20050;-47
2023/01/19 09:56:18;;;;;;;18.05;10.60;;;1.90;99.90;;;;;;4910117;29;20024;-50
2023/01/19 09:58:45;;;;;;;14.35;8.90;;;2.10;99.90;;;;;;4896958;29;20032;-48
2023/01/19 10:01:30;;;;;;;13.50;6.65;;;2.30;99.90;;;;;;4903586;29;20038;-51
2023/01/19 10:04:28;;;;;;;12.15;7.05;;;2.80;99.90;;;;;;4915842;29;20050;-49
2023/01/19 10:07:08;;;;;;;10.40;6.32;;;3.70;99.90;;;;;;4913575;29;20024;-48
2023/01/19 10:09:49;;;;;;;10.80;6.05;;;5.10;99.90;;;;;;4908143;29;20365;-51
2023/01/19 10:12:49;;;;;;;24.77;11.70;;;5.90;99.90;;;;;;4915419;29;20031;-51
2023/01/19 10:16:01;;;;;;;17.77;9.63;;;6.70;99.90;;;;;;4915150;29;20518;-48
2023/01/19 10:18:46;;;;;;;12.57;7.47;;;8.00;99.90;;;;;;4911777;29;20048;-48
2023/01/19 10:21:42;;;;;;;11.80;7.13;;;9.00;96.80;;;;;;4906642;29;20040;-48
2023/01/19 10:24:10;;;;;;;13.18;7.13;;;11.00;95.80;;;;;;4912126;29;20067;-47
2023/01/19 10:26:58;;;;;;;14.27;8.50;;;12.40;91.30;;;;;;4915682;29;20028;-47
2023/01/19 10:29:27;;;;;;;13.85;8.00;;;13.50;84.30;;;;;;4914416;29;20547;-47
2023/01/19 10:32:08;;;;;;;15.70;8.43;;;14.20;77.60;;;;;;4915995;29;20024;-51
2023/01/19 10:34:34;;;;;;;13.68;8.80;;;14.70;74.80;;;;;;4899357;29;20092;-50
2023/01/19 10:37:14;;;;;;;16.98;9.48;;;15.40;69.20;;;;;;4899738;29;20044;-52
2023/01/19 10:39:41;;;;;;;10.93;7.40;;;15.80;67.20;;;;;;4916055;29;20134;-48
2023/01/19 10:42:14;;;;;;;11.27;7.40;;;16.10;65.50;;;;;;4914641;29;20392;-48
2023/01/19 10:44:40;;;;;;;12.43;7.30;;;16.40;63.10;;;;;;4913025;29;20452;-49
2023/01/19 10:47:17;;;;;;;10.60;6.60;;;17.00;61.40;;;;;;4913843;29;20048;-49
2023/01/19 10:49:43;;;;;;;12.15;7.07;;;17.40;60.50;;;;;;4911903;29;20032;-51
2023/01/19 10:52:24;;;;;;;12.23;6.85;;;18.00;59.00;;;;;;4907583;29;20028;-51
2023/01/19 10:54:49;;;;;;;11.23;7.22;;;18.40;58.60;;;;;;4899435;29;20041;-52
2023/01/19 10:57:27;;;;;;;9.23;5.40;;;18.60;55.20;;;;;;4895832;29;20033;-50
2023/01/19 10:59:52;;;;;;;12.07;5.95;;;18.90;55.80;;;;;;4896753;29;20044;-48
2023/01/19 11:02:27;;;;;;;9.68;6.13;;;19.10;54.30;;;;;;4896603;29;20107;-57
2023/01/19 11:04:54;;;;;;;8.40;5.60;;;19.10;55.70;;;;;;4896650;29;20029;-51
2023/01/19 11:07:27;;;;;;;10.00;5.68;;;19.80;53.90;;;;;;4896697;29;20396;-52
2023/01/19 11:10:14;;;;;;;8.45;5.38;;;20.40;53.80;;;;;;4896493;29;20029;-51
2023/01/19 11:12:54;;;;;;;9.70;5.75;;;20.80;52.30;;;;;;4896390;29;20016;-51
2023/01/19 11:15:28;;;;;;;8.45;5.43;;;20.80;51.20;;;;;;4896230;29;20078;-49
2023/01/19 11:17:54;;;;;;;9.73;4.72;;;20.90;50.30;;;;;;4896631;29;20112;-48
2023/01/19 11:20:27;;;;;;;7.78;4.57;;;20.90;50.80;;;;;;4896299;29;20120;-50
2023/01/19 11:23:15;;;;;;;9.00;5.38;;;20.70;49.10;;;;;;4896098;29;20073;-48
2023/01/19 11:25:45;;;;;;;8.65;5.25;;;20.80;49.60;;;;;;4896206;29;20025;-50
2023/01/19 11:28:24;;;;;;;9.95;4.47;;;20.20;50.60;;;;;;4896483;29;20040;-53
2023/01/19 11:31:16;;;;;;;9.27;4.70;;;20.80;50.40;;;;;;4896134;29;20020;-52
2023/01/19 11:33:42;;;;;;;9.25;4.88;;;21.10;48.90;;;;;;4895904;29;20354;-51
2023/01/19 11:36:22;;;;;;;8.13;4.53;;;21.10;48.50;;;;;;4896111;29;20092;-49
2023/01/19 11:39:14;;;;;;;6.93;4.55;;;21.50;49.20;;;;;;4908657;29;20028;-51
2023/01/19 11:41:40;;;;;;;10.07;4.70;;;21.50;48.10;;;;;;4896731;29;20052;-54
2023/01/19 11:44:22;;;;;;;7.70;4.50;;;20.40;48.80;;;;;;4908611;29;20111;-53
2023/01/19 11:47:01;;;;;;;7.40;4.50;;;19.40;49.20;;;;;;4896114;29;20029;-54
2023/01/19 11:49:37;;;;;;;8.27;4.65;;;18.90;51.10;;;;;;4896166;29;20096;-50
2023/01/19 11:52:24;;;;;;;8.38;5.32;;;17.90;52.80;;;;;;4894681;29;20052;-48
2023/01/19 11:55:34;;;;;;;7.70;5.07;;;17.70;54.20;;;;;;4895780;29;20048;-51
2023/01/19 11:58:01;;;;;;;9.20;5.57;;;17.40;53.90;;;;;;4879038;29;20036;-51
2023/01/19 12:00:34;;;;;;;9.98;4.95;;;16.70;54.50;;;;;;4896336;29;20044;-55
2023/01/19 12:03:08;;;;;;;9.02;4.90;;;16.90;54.80;;;;;;4895826;29;20028;-52
2023/01/19 12:05:37;;;;;;;11.27;5.95;;;17.20;54.00;;;;;;4895707;29;20021;-49
2023/01/19 12:08:06;;;;;;;;;;;17.50;53.90;;;;;;4899895;29;20047;-51
2023/01/19 12:10:37;;;;;;;7.95;4.55;;;17.80;53.20;;;;;;4897372;29;19908;-52
2023/01/19 12:13:03;;;;;;;8.00;3.65;;;18.10;52.90;;;;;;4895787;29;20024;-50
2023/01/19 12:15:35;;;;;;;8.00;3.75;;;17.70;52.60;;;;;;4895693;29;20530;-53
2023/01/19 12:18:03;;;;;;;8.25;4.22;;;18.10;53.10;;;;;;4896046;29;20111;-48
2023/01/19 12:20:43;;;;;;;8.80;4.07;;;17.90;51.90;;;;;;4895626;29;20060;-50
2023/01/19 12:23:14;;;;;;;7.55;4.03;;;18.00;54.20;;;;;;4895891;29;20060;-50
2023/01/19 12:26:17;;;;;;;8.32;4.70;;;18.90;53.40;;;;;;4895557;29;20056;-48
2023/01/19 12:28:48;;;;;;;6.90;4.60;;;19.00;52.90;;;;;;4895593;29;20044;-47
2023/01/19 12:31:19;;;;;;;9.75;5.60;;;19.60;50.00;;;;;;4895608;29;20032;-51
2023/01/19 12:33:45;;;;;;;9.23;5.65;;;19.60;49.90;;;;;;4895929;29;20176;-52
2023/01/19 12:36:28;;;;;;;12.48;6.20;;;18.70;51.30;;;;;;4897926;29;20392;-54
2023/01/19 12:39:13;;;;;;;12.68;6.15;;;17.70;53.90;;;;;;4904365;29;20075;-49
2023/01/19 12:41:40;;;;;;;14.10;7.00;;;16.90;54.90;;;;;;4899175;29;20067;-47
2023/01/19 12:44:15;;;;;;;10.85;7.38;;;16.40;57.10;;;;;;4898967;29;20076;-50
2023/01/19 12:47:18;;;;;;;11.20;7.30;;;16.60;57.40;;;;;;4899041;29;20028;-47
2023/01/19 12:49:58;;;;;;;17.13;11.57;;;17.60;56.40;;;;;;4898963;29;20377;-52
2023/01/19 12:52:29;;;;;;;12.50;8.82;;;17.90;53.60;;;;;;4899147;29;20028;-47
2023/01/19 12:55:11;;;;;;;15.50;9.52;;;18.60;54.30;;;;;;4898859;29;20115;-48
2023/01/19 12:57:52;;;;;;;10.73;5.13;;;19.00;52.50;;;;;;4899013;29;20487;-49
2023/01/19 13:00:21;;;;;;;8.88;4.30;;;18.40;51.80;;;;;;4898727;29;20115;-51
2023/01/19 13:02:52;;;;;;;8.35;3.67;;;18.40;52.90;;;;;;4898869;29;20552;-50